Terminal Aerodrome Forecast
Issued by NWS

Home | Current Version | Previous Version | Text Only | Print | Product List | Glossary On
Versions: 1 2 3 4 5 6 7 8 9 10 11 12 13 14 15 16 17
000
FTUS43 KDVN 031731
TAFCID
TAF
KCID 031731Z 0318/0418 17013G20KT P6SM SCT050 SCT120
     FM040000 20010KT P6SM BKN080
     FM040300 20007KT 6SM -RA BR VCTS SCT050 BKN070CB
      TEMPO 0403/0407 2SM TSRA BR OVC020CB
     FM040800 28007KT 4SM -RA BR VCTS OVC035CB
     FM041400 26005KT 6SM -RA BR OVC035=

USA.gov is the U.S. government's official web portal to all federal, state and local government web resources and services.